Terminal Aerodrome Forecast
Issued by NWS Hastings, NE

Current Version | Previous Version | Text Only | Print | Product List | Glossary On
Versions: 1 2 3 4 5 6 7 8 9 10 11 12 13 14 15 16 17 18 19 20
000
FTUS43 KGID 231728 AAC
TAFGRI
TAF AMD
KGRI 231728Z 2317/2418 06016G25KT 3SM BR OVC003
     FM232200 05016G25KT 3SM -RASN OVC003
     FM240200 02016G27KT 1SM -SN BLSN OVC003
     FM240800 35022G34KT 1SM -SN BLSN OVC008
     FM241200 35019G27KT 1SM -SN BLSN OVC010
     FM241300 35020G28KT 3/4SM -SN BLSN OVC010=

USA.gov is the U.S. government's official web portal to all federal, state and local government web resources and services.